sensor_id;sensor_type;location;lat;lon;timestamp;pressure;altitude;pressure_sealevel;temperature;humidity
33280;BME280;20403;43.114;12.434;2023-03-04T00:00:27;99056.25;;;6.40;100.00
33280;BME280;20403;43.114;12.434;2023-03-04T00:02:53;99062.25;;;6.47;100.00
33280;BME280;20403;43.114;12.434;2023-03-04T00:05:18;99062.41;;;6.39;100.00
33280;BME280;20403;43.114;12.434;2023-03-04T00:07:44;99057.19;;;6.26;100.00
33280;BME280;20403;43.114;12.434;2023-03-04T00:10:10;99059.13;;;6.10;100.00
33280;BME280;20403;43.114;12.434;2023-03-04T00:12:35;99057.34;;;6.11;100.00
33280;BME280;20403;43.114;12.434;2023-03-04T00:15:01;99061.06;;;5.95;100.00
33280;BME280;20403;43.114;12.434;2023-03-04T00:17:27;99060.91;;;6.03;100.00
33280;BME280;20403;43.114;12.434;2023-03-04T00:19:54;99054.91;;;6.03;100.00
33280;BME280;20403;43.114;12.434;2023-03-04T00:22:20;99053.00;;;5.83;100.00
33280;BME280;20403;43.114;12.434;2023-03-04T00:24:45;99056.03;;;5.87;100.00
33280;BME280;20403;43.114;12.434;2023-03-04T00:27:11;99057.44;;;5.89;100.00
33280;BME280;20403;43.114;12.434;2023-03-04T00:29:36;99052.22;;;5.83;100.00
33280;BME280;20403;43.114;12.434;2023-03-04T00:32:02;99055.91;;;6.02;100.00
33280;BME280;20403;43.114;12.434;2023-03-04T00:34:27;99049.13;;;5.94;100.00
33280;BME280;20403;43.114;12.434;2023-03-04T00:36:53;99048.19;;;6.08;100.00
33280;BME280;20403;43.114;12.434;2023-03-04T00:39:22;99051.16;;;6.05;100.00
33280;BME280;20403;43.114;12.434;2023-03-04T00:41:47;99055.31;;;6.00;100.00
33280;BME280;20403;43.114;12.434;2023-03-04T00:44:12;99049.94;;;6.01;100.00
33280;BME280;20403;43.114;12.434;2023-03-04T00:46:38;99054.09;;;5.96;100.00
33280;BME280;20403;43.114;12.434;2023-03-04T00:49:03;99047.53;;;6.00;100.00
33280;BME280;20403;43.114;12.434;2023-03-04T00:51:29;99050.34;;;6.05;100.00
33280;BME280;20403;43.114;12.434;2023-03-04T00:53:54;99042.41;;;6.06;100.00
33280;BME280;20403;43.114;12.434;2023-03-04T00:56:19;99051.25;;;5.90;100.00
33280;BME280;20403;43.114;12.434;2023-03-04T00:58:45;99045.28;;;5.90;100.00
33280;BME280;20403;43.114;12.434;2023-03-04T01:01:10;99044.19;;;5.71;100.00
33280;BME280;20403;43.114;12.434;2023-03-04T01:03:36;99044.38;;;5.69;100.00
33280;BME280;20403;43.114;12.434;2023-03-04T01:06:01;99045.66;;;5.52;100.00
33280;BME280;20403;43.114;12.434;2023-03-04T01:08:27;99041.72;;;5.56;100.00
33280;BME280;20403;43.114;12.434;2023-03-04T01:10:52;99038.72;;;5.53;100.00
33280;BME280;20403;43.114;12.434;2023-03-04T01:13:18;99036.72;;;5.48;100.00
33280;BME280;20403;43.114;12.434;2023-03-04T01:15:43;99035.16;;;5.25;100.00
33280;BME280;20403;43.114;12.434;2023-03-04T01:18:09;99034.03;;;5.35;100.00
33280;BME280;20403;43.114;12.434;2023-03-04T01:20:34;99036.44;;;5.36;100.00
33280;BME280;20403;43.114;12.434;2023-03-04T01:22:59;99037.06;;;5.45;100.00
33280;BME280;20403;43.114;12.434;2023-03-04T01:25:25;99032.56;;;5.54;100.00
33280;BME280;20403;43.114;12.434;2023-03-04T01:27:50;99032.34;;;5.48;100.00
33280;BME280;20403;43.114;12.434;2023-03-04T01:30:16;99032.28;;;5.42;100.00
33280;BME280;20403;43.114;12.434;2023-03-04T01:32:41;99027.97;;;5.21;100.00
33280;BME280;20403;43.114;12.434;2023-03-04T01:35:07;99023.59;;;5.21;100.00
33280;BME280;20403;43.114;12.434;2023-03-04T01:37:32;99027.38;;;5.19;100.00
33280;BME280;20403;43.114;12.434;2023-03-04T01:39:58;99020.09;;;5.36;100.00
33280;BME280;20403;43.114;12.434;2023-03-04T01:42:25;99023.09;;;5.33;100.00
33280;BME280;20403;43.114;12.434;2023-03-04T01:44:52;99020.28;;;5.28;100.00
33280;BME280;20403;43.114;12.434;2023-03-04T01:47:18;99022.25;;;5.25;100.00
33280;BME280;20403;43.114;12.434;2023-03-04T01:49:46;99024.31;;;5.09;100.00
33280;BME280;20403;43.114;12.434;2023-03-04T01:52:15;99022.94;;;5.13;100.00
33280;BME280;20403;43.114;12.434;2023-03-04T01:54:40;99024.78;;;5.19;100.00
33280;BME280;20403;43.114;12.434;2023-03-04T01:57:15;99024.69;;;5.05;100.00
33280;BME280;20403;43.114;12.434;2023-03-04T01:59:41;99029.34;;;5.17;100.00
33280;BME280;20403;43.114;12.434;2023-03-04T02:02:06;99028.94;;;5.13;100.00
33280;BME280;20403;43.114;12.434;2023-03-04T02:04:33;99028.66;;;5.08;100.00
33280;BME280;20403;43.114;12.434;2023-03-04T02:07:00;99016.19;;;5.12;100.00
33280;BME280;20403;43.114;12.434;2023-03-04T02:09:27;99011.63;;;5.14;100.00
33280;BME280;20403;43.114;12.434;2023-03-04T02:11:54;99019.38;;;5.14;100.00
33280;BME280;20403;43.114;12.434;2023-03-04T02:14:20;99016.56;;;5.09;100.00
33280;BME280;20403;43.114;12.434;2023-03-04T02:16:47;99015.66;;;4.95;100.00
33280;BME280;20403;43.114;12.434;2023-03-04T02:19:40;99006.75;;;4.97;100.00
33280;BME280;20403;43.114;12.434;2023-03-04T02:22:10;99010.56;;;5.01;100.00
33280;BME280;20403;43.114;12.434;2023-03-04T02:24:47;99010.78;;;5.07;100.00
33280;BME280;20403;43.114;12.434;2023-03-04T02:27:14;98998.78;;;4.99;100.00
33280;BME280;20403;43.114;12.434;2023-03-04T02:29:40;98996.59;;;4.96;100.00
33280;BME280;20403;43.114;12.434;2023-03-04T02:32:05;98999.34;;;4.94;100.00
33280;BME280;20403;43.114;12.434;2023-03-04T02:34:33;98993.31;;;4.87;100.00
33280;BME280;20403;43.114;12.434;2023-03-04T02:37:00;98992.06;;;4.76;100.00
33280;BME280;20403;43.114;12.434;2023-03-04T02:41:53;98995.56;;;4.69;100.00
33280;BME280;20403;43.114;12.434;2023-03-04T02:44:23;98995.69;;;4.82;100.00
33280;BME280;20403;43.114;12.434;2023-03-04T02:46:49;98992.78;;;4.92;100.00
33280;BME280;20403;43.114;12.434;2023-03-04T02:49:15;98990.44;;;4.75;100.00
33280;BME280;20403;43.114;12.434;2023-03-04T02:51:41;98989.72;;;4.81;100.00
33280;BME280;20403;43.114;12.434;2023-03-04T02:54:16;98986.84;;;4.98;100.00
33280;BME280;20403;43.114;12.434;2023-03-04T02:56:51;98984.66;;;4.95;100.00
33280;BME280;20403;43.114;12.434;2023-03-04T02:59:17;98976.97;;;4.80;100.00
33280;BME280;20403;43.114;12.434;2023-03-04T03:01:42;98985.78;;;4.86;100.00
33280;BME280;20403;43.114;12.434;2023-03-04T03:04:08;98979.91;;;4.98;100.00
33280;BME280;20403;43.114;12.434;2023-03-04T03:06:34;98984.84;;;4.93;100.00
33280;BME280;20403;43.114;12.434;2023-03-04T03:08:59;98977.47;;;4.90;100.00
33280;BME280;20403;43.114;12.434;2023-03-04T03:11:25;98991.06;;;4.77;100.00
33280;BME280;20403;43.114;12.434;2023-03-04T03:13:50;98988.44;;;4.99;100.00
33280;BME280;20403;43.114;12.434;2023-03-04T03:16:16;98988.31;;;5.07;100.00
33280;BME280;20403;43.114;12.434;2023-03-04T03:18:41;98986.47;;;5.01;100.00
33280;BME280;20403;43.114;12.434;2023-03-04T03:21:06;98991.56;;;4.88;100.00
33280;BME280;20403;43.114;12.434;2023-03-04T03:23:32;98991.78;;;4.93;100.00
33280;BME280;20403;43.114;12.434;2023-03-04T03:25:58;98989.72;;;4.81;100.00
33280;BME280;20403;43.114;12.434;2023-03-04T03:28:23;98985.97;;;4.84;100.00
33280;BME280;20403;43.114;12.434;2023-03-04T03:30:49;98989.00;;;4.66;100.00
33280;BME280;20403;43.114;12.434;2023-03-04T03:33:14;98985.97;;;4.84;100.00
33280;BME280;20403;43.114;12.434;2023-03-04T03:35:39;98986.09;;;4.76;100.00
33280;BME280;20403;43.114;12.434;2023-03-04T03:38:05;98984.16;;;4.84;100.00
33280;BME280;20403;43.114;12.434;2023-03-04T03:40:30;98981.97;;;4.81;100.00
33280;BME280;20403;43.114;12.434;2023-03-04T03:42:56;98987.53;;;4.85;100.00
33280;BME280;20403;43.114;12.434;2023-03-04T03:45:21;98980.78;;;4.84;100.00
33280;BME280;20403;43.114;12.434;2023-03-04T03:47:46;98981.78;;;4.83;100.00
33280;BME280;20403;43.114;12.434;2023-03-04T03:50:12;98976.25;;;4.86;100.00
33280;BME280;20403;43.114;12.434;2023-03-04T03:52:37;98981.19;;;4.81;100.00
33280;BME280;20403;43.114;12.434;2023-03-04T03:55:03;98978.09;;;4.71;100.00
33280;BME280;20403;43.114;12.434;2023-03-04T03:57:29;98986.63;;;4.65;100.00
33280;BME280;20403;43.114;12.434;2023-03-04T03:59:55;98977.94;;;4.72;100.00
33280;BME280;20403;43.114;12.434;2023-03-04T04:02:20;98980.38;;;4.59;100.00
33280;BME280;20403;43.114;12.434;2023-03-04T04:04:46;98977.06;;;4.65;100.00
33280;BME280;20403;43.114;12.434;2023-03-04T04:07:12;98982.59;;;4.62;100.00
33280;BME280;20403;43.114;12.434;2023-03-04T04:09:37;98987.34;;;4.58;100.00
33280;BME280;20403;43.114;12.434;2023-03-04T04:12:04;98988.03;;;4.67;100.00
33280;BME280;20403;43.114;12.434;2023-03-04T04:14:30;98996.63;;;4.74;100.00
33280;BME280;20403;43.114;12.434;2023-03-04T04:16:55;98993.97;;;4.68;100.00
33280;BME280;20403;43.114;12.434;2023-03-04T04:19:21;98991.81;;;4.71;100.00
33280;BME280;20403;43.114;12.434;2023-03-04T04:21:46;98992.00;;;4.70;100.00
33280;BME280;20403;43.114;12.434;2023-03-04T04:24:12;98996.69;;;4.59;100.00
33280;BME280;20403;43.114;12.434;2023-03-04T04:26:38;98993.44;;;4.51;100.00
33280;BME280;20403;43.114;12.434;2023-03-04T04:29:03;98991.94;;;4.63;100.00
33280;BME280;20403;43.114;12.434;2023-03-04T04:31:29;99001.34;;;4.49;100.00
33280;BME280;20403;43.114;12.434;2023-03-04T04:33:54;98997.78;;;4.50;100.00
33280;BME280;20403;43.114;12.434;2023-03-04T04:36:20;98995.88;;;4.59;100.00
33280;BME280;20403;43.114;12.434;2023-03-04T04:38:45;98998.09;;;4.40;100.00
33280;BME280;20403;43.114;12.434;2023-03-04T04:41:21;98989.00;;;4.45;100.00
33280;BME280;20403;43.114;12.434;2023-03-04T04:43:47;98992.19;;;4.47;100.00
33280;BME280;20403;43.114;12.434;2023-03-04T04:46:14;98992.44;;;4.52;100.00
33280;BME280;20403;43.114;12.434;2023-03-04T04:48:40;98993.66;;;4.77;100.00
33280;BME280;20403;43.114;12.434;2023-03-04T04:51:05;98996.34;;;4.91;100.00
33280;BME280;20403;43.114;12.434;2023-03-04T04:53:31;98994.88;;;4.81;100.00
33280;BME280;20403;43.114;12.434;2023-03-04T04:55:56;98993.16;;;4.89;100.00
33280;BME280;20403;43.114;12.434;2023-03-04T04:58:22;98996.53;;;4.89;100.00
33280;BME280;20403;43.114;12.434;2023-03-04T05:00:47;98985.28;;;5.03;100.00
33280;BME280;20403;43.114;12.434;2023-03-04T05:03:12;98990.28;;;5.05;100.00
33280;BME280;20403;43.114;12.434;2023-03-04T05:05:38;98990.78;;;5.15;100.00
33280;BME280;20403;43.114;12.434;2023-03-04T05:08:04;98993.19;;;5.23;100.00
33280;BME280;20403;43.114;12.434;2023-03-04T05:10:30;98991.88;;;5.34;100.00
33280;BME280;20403;43.114;12.434;2023-03-04T05:12:55;98990.94;;;5.48;100.00
33280;BME280;20403;43.114;12.434;2023-03-04T05:15:21;98994.72;;;5.46;100.00
33280;BME280;20403;43.114;12.434;2023-03-04T05:17:46;98996.22;;;5.68;100.00
33280;BME280;20403;43.114;12.434;2023-03-04T05:20:12;98991.88;;;5.76;100.00
33280;BME280;20403;43.114;12.434;2023-03-04T05:22:37;98991.72;;;5.90;100.00
33280;BME280;20403;43.114;12.434;2023-03-04T05:25:03;98996.63;;;6.14;100.00
33280;BME280;20403;43.114;12.434;2023-03-04T05:27:28;98987.69;;;6.23;100.00
33280;BME280;20403;43.114;12.434;2023-03-04T05:29:54;98992.09;;;6.29;100.00
33280;BME280;20403;43.114;12.434;2023-03-04T05:32:23;98985.13;;;6.36;100.00
33280;BME280;20403;43.114;12.434;2023-03-04T05:34:49;98974.97;;;6.48;100.00
33280;BME280;20403;43.114;12.434;2023-03-04T05:37:14;98985.94;;;6.57;100.00
33280;BME280;20403;43.114;12.434;2023-03-04T05:39:40;98990.13;;;6.58;100.00
33280;BME280;20403;43.114;12.434;2023-03-04T05:42:05;98986.94;;;6.56;100.00
33280;BME280;20403;43.114;12.434;2023-03-04T05:44:31;98992.31;;;6.61;100.00
33280;BME280;20403;43.114;12.434;2023-03-04T05:46:56;98991.50;;;6.60;100.00
33280;BME280;20403;43.114;12.434;2023-03-04T05:49:21;98989.72;;;6.67;100.00
33280;BME280;20403;43.114;12.434;2023-03-04T05:51:47;98984.53;;;6.81;100.00
33280;BME280;20403;43.114;12.434;2023-03-04T05:54:12;98995.91;;;6.93;100.00
33280;BME280;20403;43.114;12.434;2023-03-04T05:56:38;98995.72;;;7.01;100.00
33280;BME280;20403;43.114;12.434;2023-03-04T05:59:03;99000.88;;;7.08;100.00
33280;BME280;20403;43.114;12.434;2023-03-04T06:01:29;99003.47;;;7.14;100.00
33280;BME280;20403;43.114;12.434;2023-03-04T06:03:55;99005.66;;;7.18;100.00
33280;BME280;20403;43.114;12.434;2023-03-04T06:06:21;99005.66;;;7.24;100.00
33280;BME280;20403;43.114;12.434;2023-03-04T06:08:46;99002.81;;;7.39;100.00
33280;BME280;20403;43.114;12.434;2023-03-04T06:11:12;99006.00;;;7.48;100.00
33280;BME280;20403;43.114;12.434;2023-03-04T06:13:37;99003.56;;;7.60;100.00
33280;BME280;20403;43.114;12.434;2023-03-04T06:16:03;99006.53;;;7.76;100.00
33280;BME280;20403;43.114;12.434;2023-03-04T06:18:29;99005.25;;;7.92;100.00
33280;BME280;20403;43.114;12.434;2023-03-04T06:21:01;99001.78;;;8.12;100.00
33280;BME280;20403;43.114;12.434;2023-03-04T06:23:28;99001.72;;;8.25;100.00
33280;BME280;20403;43.114;12.434;2023-03-04T06:25:56;99004.00;;;8.47;100.00
33280;BME280;20403;43.114;12.434;2023-03-04T06:28:22;99003.53;;;8.56;100.00
33280;BME280;20403;43.114;12.434;2023-03-04T06:30:51;99000.69;;;8.65;100.00
33280;BME280;20403;43.114;12.434;2023-03-04T06:33:16;98996.59;;;8.75;100.00
33280;BME280;20403;43.114;12.434;2023-03-04T06:35:41;99007.81;;;8.76;100.00
33280;BME280;20403;43.114;12.434;2023-03-04T06:38:07;99008.56;;;8.83;100.00
33280;BME280;20403;43.114;12.434;2023-03-04T06:40:32;99009.69;;;9.12;100.00
33280;BME280;20403;43.114;12.434;2023-03-04T06:42:58;99010.13;;;9.53;100.00
33280;BME280;20403;43.114;12.434;2023-03-04T06:45:23;99011.66;;;9.91;100.00
33280;BME280;20403;43.114;12.434;2023-03-04T06:47:48;99016.06;;;10.08;100.00
33280;BME280;20403;43.114;12.434;2023-03-04T06:50:14;99021.16;;;9.85;100.00
33280;BME280;20403;43.114;12.434;2023-03-04T06:52:39;99020.59;;;9.83;100.00
33280;BME280;20403;43.114;12.434;2023-03-04T06:55:05;99023.38;;;10.00;100.00
33280;BME280;20403;43.114;12.434;2023-03-04T06:57:31;99024.66;;;10.09;100.00
33280;BME280;20403;43.114;12.434;2023-03-04T06:59:56;99032.44;;;10.27;100.00
33280;BME280;20403;43.114;12.434;2023-03-04T07:02:22;99032.97;;;10.90;100.00
33280;BME280;20403;43.114;12.434;2023-03-04T07:04:48;99026.97;;;11.36;100.00
33280;BME280;20403;43.114;12.434;2023-03-04T07:07:13;99034.13;;;11.29;100.00
33280;BME280;20403;43.114;12.434;2023-03-04T07:09:39;99038.66;;;11.57;100.00
33280;BME280;20403;43.114;12.434;2023-03-04T07:12:04;99039.69;;;11.45;100.00
33280;BME280;20403;43.114;12.434;2023-03-04T07:14:30;99045.50;;;11.35;100.00
33280;BME280;20403;43.114;12.434;2023-03-04T07:16:55;99045.34;;;11.77;100.00
33280;BME280;20403;43.114;12.434;2023-03-04T07:19:21;99048.63;;;11.72;100.00
33280;BME280;20403;43.114;12.434;2023-03-04T07:21:46;99047.88;;;11.60;100.00
33280;BME280;20403;43.114;12.434;2023-03-04T07:24:12;99055.72;;;11.48;100.00
33280;BME280;20403;43.114;12.434;2023-03-04T07:26:38;99043.22;;;11.39;100.00
33280;BME280;20403;43.114;12.434;2023-03-04T07:29:04;99054.00;;;11.42;100.00
33280;BME280;20403;43.114;12.434;2023-03-04T07:31:31;99060.13;;;11.36;100.00
33280;BME280;20403;43.114;12.434;2023-03-04T07:34:06;99061.50;;;11.39;100.00
33280;BME280;20403;43.114;12.434;2023-03-04T07:36:34;99052.63;;;11.51;100.00
33280;BME280;20403;43.114;12.434;2023-03-04T07:39:00;99047.03;;;11.71;100.00
33280;BME280;20403;43.114;12.434;2023-03-04T07:41:26;99062.84;;;11.88;100.00
33280;BME280;20403;43.114;12.434;2023-03-04T07:43:52;99058.28;;;11.95;100.00
33280;BME280;20403;43.114;12.434;2023-03-04T07:46:18;99061.53;;;12.03;100.00
33280;BME280;20403;43.114;12.434;2023-03-04T07:48:44;99061.41;;;12.09;100.00
33280;BME280;20403;43.114;12.434;2023-03-04T07:51:12;99064.47;;;12.18;100.00
33280;BME280;20403;43.114;12.434;2023-03-04T07:53:39;99064.13;;;12.14;100.00
33280;BME280;20403;43.114;12.434;2023-03-04T07:56:06;99062.81;;;12.29;100.00
33280;BME280;20403;43.114;12.434;2023-03-04T07:58:32;99062.59;;;12.30;100.00
33280;BME280;20403;43.114;12.434;2023-03-04T08:00:58;99068.28;;;12.56;100.00
33280;BME280;20403;43.114;12.434;2023-03-04T08:03:23;99066.81;;;12.77;100.00
33280;BME280;20403;43.114;12.434;2023-03-04T08:05:49;99072.28;;;12.92;100.00
33280;BME280;20403;43.114;12.434;2023-03-04T08:08:15;99069.03;;;13.02;100.00
33280;BME280;20403;43.114;12.434;2023-03-04T08:10:41;99069.97;;;12.96;100.00
33280;BME280;20403;43.114;12.434;2023-03-04T08:13:07;99072.69;;;13.18;100.00
33280;BME280;20403;43.114;12.434;2023-03-04T08:15:33;99069.84;;;13.36;100.00
33280;BME280;20403;43.114;12.434;2023-03-04T08:18:00;99066.13;;;13.32;100.00
33280;BME280;20403;43.114;12.434;2023-03-04T08:20:25;99064.44;;;13.43;100.00
33280;BME280;20403;43.114;12.434;2023-03-04T08:22:51;99067.34;;;13.47;100.00
33280;BME280;20403;43.114;12.434;2023-03-04T08:25:16;99065.94;;;13.22;100.00
33280;BME280;20403;43.114;12.434;2023-03-04T08:27:41;99061.50;;;13.22;100.00
33280;BME280;20403;43.114;12.434;2023-03-04T08:30:08;99059.53;;;13.13;100.00
33280;BME280;20403;43.114;12.434;2023-03-04T08:32:33;99060.00;;;13.27;100.00
33280;BME280;20403;43.114;12.434;2023-03-04T08:34:59;99055.16;;;13.35;100.00
33280;BME280;20403;43.114;12.434;2023-03-04T08:37:28;99052.91;;;13.44;100.00
33280;BME280;20403;43.114;12.434;2023-03-04T08:39:53;99062.63;;;13.65;100.00
33280;BME280;20403;43.114;12.434;2023-03-04T08:42:19;99057.72;;;13.69;100.00
33280;BME280;20403;43.114;12.434;2023-03-04T08:44:44;99052.63;;;13.62;100.00
33280;BME280;20403;43.114;12.434;2023-03-04T08:47:10;99054.69;;;13.77;95.61
33280;BME280;20403;43.114;12.434;2023-03-04T08:49:36;99058.81;;;13.95;100.00
33280;BME280;20403;43.114;12.434;2023-03-04T08:52:02;99054.84;;;13.93;90.43
33280;BME280;20403;43.114;12.434;2023-03-04T08:54:27;99061.56;;;13.83;96.08
33280;BME280;20403;43.114;12.434;2023-03-04T08:56:53;99052.00;;;13.94;85.42
33280;BME280;20403;43.114;12.434;2023-03-04T08:59:18;99052.72;;;13.90;82.55
33280;BME280;20403;43.114;12.434;2023-03-04T09:01:44;99053.97;;;14.09;86.23
33280;BME280;20403;43.114;12.434;2023-03-04T09:04:09;99056.03;;;14.29;87.49
33280;BME280;20403;43.114;12.434;2023-03-04T09:06:34;99060.53;;;14.56;84.58
33280;BME280;20403;43.114;12.434;2023-03-04T09:09:00;99056.16;;;14.66;91.28
33280;BME280;20403;43.114;12.434;2023-03-04T09:11:26;99057.44;;;14.91;91.87
33280;BME280;20403;43.114;12.434;2023-03-04T09:13:51;99062.34;;;15.20;79.60
33280;BME280;20403;43.114;12.434;2023-03-04T09:16:17;99055.59;;;15.29;76.89
33280;BME280;20403;43.114;12.434;2023-03-04T09:18:43;99052.69;;;15.25;74.04
33280;BME280;20403;43.114;12.434;2023-03-04T09:21:08;99048.22;;;15.26;71.90
33280;BME280;20403;43.114;12.434;2023-03-04T09:23:35;99058.41;;;15.17;73.86
33280;BME280;20403;43.114;12.434;2023-03-04T09:26:00;99045.84;;;15.24;72.45
33280;BME280;20403;43.114;12.434;2023-03-04T09:28:26;99063.56;;;15.44;75.89
33280;BME280;20403;43.114;12.434;2023-03-04T09:30:51;99055.84;;;15.27;70.46
33280;BME280;20403;43.114;12.434;2023-03-04T09:33:17;99044.81;;;15.25;69.42
33280;BME280;20403;43.114;12.434;2023-03-04T09:35:43;99048.69;;;15.18;72.46
33280;BME280;20403;43.114;12.434;2023-03-04T09:38:08;99043.34;;;15.50;75.29
33280;BME280;20403;43.114;12.434;2023-03-04T09:40:47;99059.88;;;15.03;69.85
33280;BME280;20403;43.114;12.434;2023-03-04T09:43:25;99046.16;;;15.33;72.39
33280;BME280;20403;43.114;12.434;2023-03-04T09:45:56;99045.53;;;15.68;74.22
33280;BME280;20403;43.114;12.434;2023-03-04T09:48:27;99046.19;;;15.86;73.04
33280;BME280;20403;43.114;12.434;2023-03-04T09:50:59;99042.84;;;16.16;69.94
33280;BME280;20403;43.114;12.434;2023-03-04T09:56:02;99037.91;;;16.35;61.85
33280;BME280;20403;43.114;12.434;2023-03-04T09:59:24;99034.72;;;16.17;61.62
33280;BME280;20403;43.114;12.434;2023-03-04T10:01:54;99037.84;;;16.04;61.95
33280;BME280;20403;43.114;12.434;2023-03-04T10:06:56;99025.00;;;16.54;59.02
33280;BME280;20403;43.114;12.434;2023-03-04T10:09:26;99025.56;;;16.71;60.13
33280;BME280;20403;43.114;12.434;2023-03-04T10:12:00;99037.38;;;16.33;59.35
33280;BME280;20403;43.114;12.434;2023-03-04T10:14:43;99026.09;;;16.53;59.50
33280;BME280;20403;43.114;12.434;2023-03-04T10:20:04;99031.03;;;16.18;59.81
33280;BME280;20403;43.114;12.434;2023-03-04T10:25:27;99032.16;;;15.70;60.76
33280;BME280;20403;43.114;12.434;2023-03-04T10:28:02;99020.34;;;15.72;61.40
33280;BME280;20403;43.114;12.434;2023-03-04T10:33:21;99039.63;;;15.88;61.02
33280;BME280;20403;43.114;12.434;2023-03-04T10:35:51;99025.25;;;15.59;62.61
33280;BME280;20403;43.114;12.434;2023-03-04T10:38:19;99022.28;;;15.98;63.32
33280;BME280;20403;43.114;12.434;2023-03-04T10:40:46;99018.34;;;16.00;63.79
33280;BME280;20403;43.114;12.434;2023-03-04T10:43:19;99021.53;;;16.07;63.13
33280;BME280;20403;43.114;12.434;2023-03-04T10:45:45;99015.25;;;16.29;61.29
33280;BME280;20403;43.114;12.434;2023-03-04T10:48:19;99016.25;;;16.07;59.45
33280;BME280;20403;43.114;12.434;2023-03-04T10:50:45;99019.66;;;15.92;63.79
33280;BME280;20403;43.114;12.434;2023-03-04T10:53:43;99011.72;;;15.82;62.56
33280;BME280;20403;43.114;12.434;2023-03-04T11:02:18;99017.63;;;16.20;62.07
33280;BME280;20403;43.114;12.434;2023-03-04T11:07:38;99007.13;;;16.61;61.10
33280;BME280;20403;43.114;12.434;2023-03-04T11:10:16;99008.16;;;16.65;60.82
33280;BME280;20403;43.114;12.434;2023-03-04T11:12:51;99002.59;;;16.10;58.94
33280;BME280;20403;43.114;12.434;2023-03-04T11:15:21;98998.44;;;15.51;61.35
33280;BME280;20403;43.114;12.434;2023-03-04T11:17:54;98999.50;;;15.61;65.40
33280;BME280;20403;43.114;12.434;2023-03-04T11:20:31;98997.56;;;15.93;64.44
33280;BME280;20403;43.114;12.434;2023-03-04T11:23:04;98992.59;;;16.02;61.28
33280;BME280;20403;43.114;12.434;2023-03-04T11:25:39;98990.00;;;16.17;59.47
33280;BME280;20403;43.114;12.434;2023-03-04T11:28:21;98993.66;;;16.06;60.94
33280;BME280;20403;43.114;12.434;2023-03-04T11:30:57;98985.47;;;16.03;61.11
33280;BME280;20403;43.114;12.434;2023-03-04T11:33:37;98989.66;;;15.88;63.93
33280;BME280;20403;43.114;12.434;2023-03-04T11:36:17;98983.63;;;16.03;61.71
33280;BME280;20403;43.114;12.434;2023-03-04T11:38:48;98973.63;;;16.05;62.93
33280;BME280;20403;43.114;12.434;2023-03-04T11:41:19;98977.63;;;16.44;60.84
33280;BME280;20403;43.114;12.434;2023-03-04T11:43:47;98977.91;;;16.32;59.32
33280;BME280;20403;43.114;12.434;2023-03-04T12:03:24;98953.94;;;16.90;57.44
33280;BME280;20403;43.114;12.434;2023-03-04T12:05:48;98943.69;;;16.73;54.38
33280;BME280;20403;43.114;12.434;2023-03-04T12:08:22;98942.09;;;16.82;55.89
33280;BME280;20403;43.114;12.434;2023-03-04T12:11:21;98937.09;;;16.75;56.15
33280;BME280;20403;43.114;12.434;2023-03-04T12:14:28;98931.00;;;16.95;56.22
33280;BME280;20403;43.114;12.434;2023-03-04T12:19:40;98921.75;;;17.08;57.44
33280;BME280;20403;43.114;12.434;2023-03-04T12:22:32;98929.19;;;16.75;57.21
33280;BME280;20403;43.114;12.434;2023-03-04T12:39:25;98889.44;;;16.67;58.07
33280;BME280;20403;43.114;12.434;2023-03-04T12:42:21;98884.91;;;16.98;57.22
33280;BME280;20403;43.114;12.434;2023-03-04T12:45:21;98880.97;;;16.90;56.50
33280;BME280;20403;43.114;12.434;2023-03-04T12:48:29;98876.19;;;17.08;56.50
33280;BME280;20403;43.114;12.434;2023-03-04T12:51:24;98874.75;;;17.36;55.16
33280;BME280;20403;43.114;12.434;2023-03-04T12:54:34;98870.41;;;17.00;53.57
33280;BME280;20403;43.114;12.434;2023-03-04T12:57:08;98872.22;;;17.10;58.34
33280;BME280;20403;43.114;12.434;2023-03-04T13:02:43;98867.16;;;17.24;55.67
33280;BME280;20403;43.114;12.434;2023-03-04T13:16:54;98847.31;;;17.37;54.34
33280;BME280;20403;43.114;12.434;2023-03-04T13:19:46;98840.63;;;17.55;54.34
33280;BME280;20403;43.114;12.434;2023-03-04T13:25:36;98828.06;;;17.41;53.68
33280;BME280;20403;43.114;12.434;2023-03-04T13:28:14;98830.13;;;16.95;54.51
33280;BME280;20403;43.114;12.434;2023-03-04T13:31:03;98826.75;;;16.84;54.81
33280;BME280;20403;43.114;12.434;2023-03-04T13:36:04;98816.41;;;16.98;57.49
33280;BME280;20403;43.114;12.434;2023-03-04T13:43:59;98812.31;;;17.31;55.00
33280;BME280;20403;43.114;12.434;2023-03-04T13:51:29;98819.53;;;17.05;55.09
33280;BME280;20403;43.114;12.434;2023-03-04T13:54:16;98823.28;;;16.89;54.25
33280;BME280;20403;43.114;12.434;2023-03-04T13:56:47;98816.75;;;16.81;56.38
33280;BME280;20403;43.114;12.434;2023-03-04T13:59:27;98809.88;;;16.75;55.44
33280;BME280;20403;43.114;12.434;2023-03-04T14:06:56;98810.72;;;16.65;55.04
33280;BME280;20403;43.114;12.434;2023-03-04T14:09:32;98798.31;;;16.81;55.77
33280;BME280;20403;43.114;12.434;2023-03-04T14:12:00;98803.63;;;16.60;55.44
33280;BME280;20403;43.114;12.434;2023-03-04T14:17:36;98800.72;;;16.62;56.42
33280;BME280;20403;43.114;12.434;2023-03-04T14:20:03;98796.50;;;16.61;58.88
33280;BME280;20403;43.114;12.434;2023-03-04T14:25:02;98788.38;;;16.47;57.23
33280;BME280;20403;43.114;12.434;2023-03-04T14:27:30;98785.53;;;16.44;58.75
33280;BME280;20403;43.114;12.434;2023-03-04T14:29:59;98784.78;;;16.23;56.95
33280;BME280;20403;43.114;12.434;2023-03-04T14:32:26;98784.50;;;16.19;59.29
33280;BME280;20403;43.114;12.434;2023-03-04T14:35:20;98784.53;;;15.93;57.94